KBHC

Baxley Municipal Airport

Baxley, Georgia, USA
METAR KBHC 171615Z AUTO 25003KT 10SM BKN031 BKN038 30/23 A3019 RMK AO2 LTG DSNT W AND NW
Observed Flight Rules
Aug-17 @ 16:15 UTC (35 minutes ago) Visual Flight Rules
Wind Visibility Clouds
250° at 3 knots 10 miles
  • Broken at 3,100' AGL
  • Broken at 3,800' AGL
Temperatures Readings
Current 30°C / 86°F
Dewpoint 23°C / 73°F
Humidity 66%
Altimeter 30.19" Hg
Pressure 1022 hPa
Elevation 61
METAR KBHC 171615Z AUTO 25003KT 10SM BKN031 BKN038 30/23 A3019 RMK AO2 LTG DSNT W AND NW
Observed Flight Rules
Aug-17 @ 16:15 UTC
(35 minutes ago)
VFR
Wind Visibility
250° at 3 knots 10 miles
Clouds
  • Broken at 3,100' AGL
  • Broken at 3,800' AGL
Temperature Dewpoint
30°C / 86°F 23°C / 73°F
Humidity Altimeter Pressure
66% 30.19" Hg 1022 hPa